sensor_id;sensor_type;location;lat;lon;timestamp;temperature;humidity
21271;DHT22;10795;50.796;3.860;2023-05-10T00:00:52;12.90;99.90
21271;DHT22;10795;50.796;3.860;2023-05-10T00:03:18;12.80;99.90
21271;DHT22;10795;50.796;3.860;2023-05-10T00:05:44;12.70;99.90
21271;DHT22;10795;50.796;3.860;2023-05-10T00:08:10;12.80;99.90
21271;DHT22;10795;50.796;3.860;2023-05-10T00:10:36;12.80;99.90
21271;DHT22;10795;50.796;3.860;2023-05-10T00:13:03;12.70;99.90
21271;DHT22;10795;50.796;3.860;2023-05-10T00:15:29;12.80;99.90
21271;DHT22;10795;50.796;3.860;2023-05-10T00:17:56;12.70;99.90
21271;DHT22;10795;50.796;3.860;2023-05-10T00:20:22;12.70;99.90
21271;DHT22;10795;50.796;3.860;2023-05-10T00:22:48;12.80;99.90
21271;DHT22;10795;50.796;3.860;2023-05-10T00:25:14;12.70;99.90
21271;DHT22;10795;50.796;3.860;2023-05-10T00:27:40;12.70;99.90
21271;DHT22;10795;50.796;3.860;2023-05-10T00:30:06;12.70;99.90
21271;DHT22;10795;50.796;3.860;2023-05-10T00:32:32;12.70;99.90
21271;DHT22;10795;50.796;3.860;2023-05-10T00:34:58;12.70;99.90
21271;DHT22;10795;50.796;3.860;2023-05-10T00:37:24;12.60;99.90
21271;DHT22;10795;50.796;3.860;2023-05-10T00:39:50;12.50;99.90
21271;DHT22;10795;50.796;3.860;2023-05-10T00:42:16;12.60;99.90
21271;DHT22;10795;50.796;3.860;2023-05-10T00:44:42;12.60;99.90
21271;DHT22;10795;50.796;3.860;2023-05-10T00:47:08;12.50;99.90
21271;DHT22;10795;50.796;3.860;2023-05-10T00:49:35;12.50;99.90
21271;DHT22;10795;50.796;3.860;2023-05-10T00:52:01;12.50;99.90
21271;DHT22;10795;50.796;3.860;2023-05-10T00:54:28;12.50;99.90
21271;DHT22;10795;50.796;3.860;2023-05-10T00:56:54;12.50;99.90
21271;DHT22;10795;50.796;3.860;2023-05-10T00:59:22;12.60;99.90
21271;DHT22;10795;50.796;3.860;2023-05-10T01:01:48;12.60;99.90
21271;DHT22;10795;50.796;3.860;2023-05-10T01:04:15;12.60;99.90
21271;DHT22;10795;50.796;3.860;2023-05-10T01:06:41;12.70;99.90
21271;DHT22;10795;50.796;3.860;2023-05-10T01:09:07;12.60;99.90
21271;DHT22;10795;50.796;3.860;2023-05-10T01:11:35;12.60;99.90
21271;DHT22;10795;50.796;3.860;2023-05-10T01:14:02;12.60;99.90
21271;DHT22;10795;50.796;3.860;2023-05-10T01:16:32;12.60;99.90
21271;DHT22;10795;50.796;3.860;2023-05-10T01:18:58;12.60;99.90
21271;DHT22;10795;50.796;3.860;2023-05-10T01:21:48;12.60;99.90
21271;DHT22;10795;50.796;3.860;2023-05-10T01:27:30;12.60;99.90
21271;DHT22;10795;50.796;3.860;2023-05-10T01:30:55;12.70;99.90
21271;DHT22;10795;50.796;3.860;2023-05-10T01:36:05;12.70;99.90
21271;DHT22;10795;50.796;3.860;2023-05-10T01:41:25;12.60;99.90
21271;DHT22;10795;50.796;3.860;2023-05-10T01:44:06;12.60;99.90
21271;DHT22;10795;50.796;3.860;2023-05-10T01:46:37;12.60;99.90
21271;DHT22;10795;50.796;3.860;2023-05-10T01:49:26;12.60;99.90
21271;DHT22;10795;50.796;3.860;2023-05-10T01:51:53;12.70;99.90
21271;DHT22;10795;50.796;3.860;2023-05-10T01:54:21;12.70;99.90
21271;DHT22;10795;50.796;3.860;2023-05-10T01:56:52;12.70;99.90
21271;DHT22;10795;50.796;3.860;2023-05-10T01:59:19;12.70;99.90
21271;DHT22;10795;50.796;3.860;2023-05-10T02:01:47;12.60;99.90
21271;DHT22;10795;50.796;3.860;2023-05-10T02:04:16;12.70;99.90
21271;DHT22;10795;50.796;3.860;2023-05-10T02:06:43;12.70;99.90
21271;DHT22;10795;50.796;3.860;2023-05-10T02:09:11;12.60;99.90
21271;DHT22;10795;50.796;3.860;2023-05-10T02:11:39;12.70;99.90
21271;DHT22;10795;50.796;3.860;2023-05-10T02:14:09;12.70;99.90
21271;DHT22;10795;50.796;3.860;2023-05-10T02:16:37;12.60;99.90
21271;DHT22;10795;50.796;3.860;2023-05-10T02:19:05;12.70;99.90
21271;DHT22;10795;50.796;3.860;2023-05-10T02:21:32;12.60;99.90
21271;DHT22;10795;50.796;3.860;2023-05-10T02:24:01;12.70;99.90
21271;DHT22;10795;50.796;3.860;2023-05-10T02:26:29;12.70;99.90
21271;DHT22;10795;50.796;3.860;2023-05-10T02:28:57;12.70;99.90
21271;DHT22;10795;50.796;3.860;2023-05-10T02:31:24;12.70;99.90
21271;DHT22;10795;50.796;3.860;2023-05-10T02:33:51;12.70;99.90
21271;DHT22;10795;50.796;3.860;2023-05-10T02:36:19;12.70;99.90
21271;DHT22;10795;50.796;3.860;2023-05-10T02:38:46;12.70;99.90
21271;DHT22;10795;50.796;3.860;2023-05-10T02:41:13;12.70;99.90
21271;DHT22;10795;50.796;3.860;2023-05-10T02:43:40;12.70;99.90
21271;DHT22;10795;50.796;3.860;2023-05-10T02:46:06;12.60;99.90
21271;DHT22;10795;50.796;3.860;2023-05-10T02:48:34;12.70;99.90
21271;DHT22;10795;50.796;3.860;2023-05-10T02:51:04;12.70;99.90
21271;DHT22;10795;50.796;3.860;2023-05-10T02:53:32;12.60;99.90
21271;DHT22;10795;50.796;3.860;2023-05-10T02:56:01;12.60;99.90
21271;DHT22;10795;50.796;3.860;2023-05-10T02:58:29;12.70;99.90
21271;DHT22;10795;50.796;3.860;2023-05-10T03:00:55;12.70;99.90
21271;DHT22;10795;50.796;3.860;2023-05-10T03:03:21;12.70;99.90
21271;DHT22;10795;50.796;3.860;2023-05-10T03:05:49;12.70;99.90
21271;DHT22;10795;50.796;3.860;2023-05-10T03:08:15;12.80;99.90
21271;DHT22;10795;50.796;3.860;2023-05-10T03:11:20;12.70;99.90
21271;DHT22;10795;50.796;3.860;2023-05-10T03:13:54;12.70;99.90
21271;DHT22;10795;50.796;3.860;2023-05-10T03:16:27;12.70;99.90
21271;DHT22;10795;50.796;3.860;2023-05-10T03:19:24;12.70;99.90
21271;DHT22;10795;50.796;3.860;2023-05-10T03:21:53;12.70;99.90
21271;DHT22;10795;50.796;3.860;2023-05-10T03:24:27;12.70;99.90
21271;DHT22;10795;50.796;3.860;2023-05-10T03:26:56;12.60;99.90
21271;DHT22;10795;50.796;3.860;2023-05-10T03:29:25;12.70;99.90
21271;DHT22;10795;50.796;3.860;2023-05-10T03:31:52;12.80;99.90
21271;DHT22;10795;50.796;3.860;2023-05-10T03:34:23;12.60;99.90
21271;DHT22;10795;50.796;3.860;2023-05-10T03:36:50;12.50;99.90
21271;DHT22;10795;50.796;3.860;2023-05-10T03:39:15;12.40;99.90
21271;DHT22;10795;50.796;3.860;2023-05-10T03:41:47;12.40;99.90
21271;DHT22;10795;50.796;3.860;2023-05-10T03:44:13;12.30;99.90
21271;DHT22;10795;50.796;3.860;2023-05-10T03:46:39;12.30;99.90
21271;DHT22;10795;50.796;3.860;2023-05-10T03:49:04;12.50;99.90
21271;DHT22;10795;50.796;3.860;2023-05-10T03:51:31;12.30;99.90
21271;DHT22;10795;50.796;3.860;2023-05-10T03:53:57;12.30;99.90
21271;DHT22;10795;50.796;3.860;2023-05-10T03:56:23;12.20;99.90
21271;DHT22;10795;50.796;3.860;2023-05-10T03:58:49;12.10;99.90
21271;DHT22;10795;50.796;3.860;2023-05-10T04:01:15;12.20;99.90
21271;DHT22;10795;50.796;3.860;2023-05-10T04:03:40;12.20;99.90
21271;DHT22;10795;50.796;3.860;2023-05-10T04:06:06;12.20;99.90
21271;DHT22;10795;50.796;3.860;2023-05-10T04:08:34;12.20;99.90
21271;DHT22;10795;50.796;3.860;2023-05-10T04:13:33;12.20;99.90
21271;DHT22;10795;50.796;3.860;2023-05-10T04:15:59;12.40;99.90
21271;DHT22;10795;50.796;3.860;2023-05-10T04:18:25;12.20;99.90
21271;DHT22;10795;50.796;3.860;2023-05-10T04:20:51;12.30;99.90
21271;DHT22;10795;50.796;3.860;2023-05-10T04:23:17;12.20;99.90
21271;DHT22;10795;50.796;3.860;2023-05-10T04:25:43;12.10;99.90
21271;DHT22;10795;50.796;3.860;2023-05-10T04:28:08;12.00;99.90
21271;DHT22;10795;50.796;3.860;2023-05-10T04:30:34;12.00;99.90
21271;DHT22;10795;50.796;3.860;2023-05-10T04:33:01;12.00;99.90
21271;DHT22;10795;50.796;3.860;2023-05-10T04:35:29;12.00;99.90
21271;DHT22;10795;50.796;3.860;2023-05-10T04:37:55;12.00;99.90
21271;DHT22;10795;50.796;3.860;2023-05-10T04:40:21;11.90;99.90
21271;DHT22;10795;50.796;3.860;2023-05-10T04:42:47;12.00;99.90
21271;DHT22;10795;50.796;3.860;2023-05-10T04:45:13;12.00;99.90
21271;DHT22;10795;50.796;3.860;2023-05-10T04:47:42;12.00;99.90
21271;DHT22;10795;50.796;3.860;2023-05-10T04:50:08;12.00;99.90
21271;DHT22;10795;50.796;3.860;2023-05-10T04:52:34;12.00;99.90
21271;DHT22;10795;50.796;3.860;2023-05-10T04:55:00;12.00;99.90
21271;DHT22;10795;50.796;3.860;2023-05-10T04:57:26;12.00;99.90
21271;DHT22;10795;50.796;3.860;2023-05-10T04:59:51;11.90;99.90
21271;DHT22;10795;50.796;3.860;2023-05-10T05:02:18;12.00;99.90
21271;DHT22;10795;50.796;3.860;2023-05-10T05:04:43;12.00;99.90
21271;DHT22;10795;50.796;3.860;2023-05-10T05:07:09;12.00;99.90
21271;DHT22;10795;50.796;3.860;2023-05-10T05:09:35;11.90;99.90
21271;DHT22;10795;50.796;3.860;2023-05-10T05:12:01;11.90;99.90
21271;DHT22;10795;50.796;3.860;2023-05-10T05:14:27;11.90;99.90
21271;DHT22;10795;50.796;3.860;2023-05-10T05:16:53;12.00;99.90
21271;DHT22;10795;50.796;3.860;2023-05-10T05:19:19;12.00;99.90
21271;DHT22;10795;50.796;3.860;2023-05-10T05:21:45;12.00;99.90
21271;DHT22;10795;50.796;3.860;2023-05-10T05:24:10;12.00;99.90
21271;DHT22;10795;50.796;3.860;2023-05-10T05:26:38;12.00;99.90
21271;DHT22;10795;50.796;3.860;2023-05-10T05:29:04;12.00;99.90
21271;DHT22;10795;50.796;3.860;2023-05-10T05:31:29;12.10;99.90
21271;DHT22;10795;50.796;3.860;2023-05-10T05:33:56;12.10;99.90
21271;DHT22;10795;50.796;3.860;2023-05-10T05:36:22;12.10;99.90
21271;DHT22;10795;50.796;3.860;2023-05-10T05:38:48;12.10;99.90
21271;DHT22;10795;50.796;3.860;2023-05-10T05:41:14;12.00;99.90
21271;DHT22;10795;50.796;3.860;2023-05-10T05:43:39;12.00;99.90
21271;DHT22;10795;50.796;3.860;2023-05-10T05:46:05;12.10;99.90
21271;DHT22;10795;50.796;3.860;2023-05-10T05:48:31;12.00;99.90
21271;DHT22;10795;50.796;3.860;2023-05-10T05:50:57;12.00;99.90
21271;DHT22;10795;50.796;3.860;2023-05-10T05:53:23;12.00;99.90
21271;DHT22;10795;50.796;3.860;2023-05-10T05:55:57;12.00;99.90
21271;DHT22;10795;50.796;3.860;2023-05-10T05:58:24;12.00;99.90
21271;DHT22;10795;50.796;3.860;2023-05-10T06:00:50;12.00;99.90
21271;DHT22;10795;50.796;3.860;2023-05-10T06:03:17;12.00;99.90
21271;DHT22;10795;50.796;3.860;2023-05-10T06:05:43;12.00;99.90
21271;DHT22;10795;50.796;3.860;2023-05-10T06:08:09;12.00;99.90
21271;DHT22;10795;50.796;3.860;2023-05-10T06:10:35;12.00;99.90
21271;DHT22;10795;50.796;3.860;2023-05-10T06:13:01;12.00;99.90
21271;DHT22;10795;50.796;3.860;2023-05-10T06:15:27;12.10;99.90
21271;DHT22;10795;50.796;3.860;2023-05-10T06:17:53;12.00;99.90
21271;DHT22;10795;50.796;3.860;2023-05-10T06:20:19;11.90;99.90
21271;DHT22;10795;50.796;3.860;2023-05-10T06:22:45;11.90;99.90
21271;DHT22;10795;50.796;3.860;2023-05-10T06:25:11;11.80;99.90
21271;DHT22;10795;50.796;3.860;2023-05-10T06:27:37;11.80;99.90
21271;DHT22;10795;50.796;3.860;2023-05-10T06:30:03;11.80;99.90
21271;DHT22;10795;50.796;3.860;2023-05-10T06:32:30;11.80;99.90
21271;DHT22;10795;50.796;3.860;2023-05-10T06:34:56;11.80;99.90
21271;DHT22;10795;50.796;3.860;2023-05-10T06:37:22;11.80;99.90
21271;DHT22;10795;50.796;3.860;2023-05-10T06:39:47;11.80;99.90
21271;DHT22;10795;50.796;3.860;2023-05-10T06:42:14;11.80;99.90
21271;DHT22;10795;50.796;3.860;2023-05-10T06:44:39;11.70;99.90
21271;DHT22;10795;50.796;3.860;2023-05-10T06:47:05;11.70;99.90
21271;DHT22;10795;50.796;3.860;2023-05-10T06:49:31;11.70;99.90
21271;DHT22;10795;50.796;3.860;2023-05-10T06:51:57;11.70;99.90
21271;DHT22;10795;50.796;3.860;2023-05-10T06:54:23;11.70;99.90
21271;DHT22;10795;50.796;3.860;2023-05-10T06:56:49;11.80;99.90
21271;DHT22;10795;50.796;3.860;2023-05-10T06:59:15;11.90;99.90
21271;DHT22;10795;50.796;3.860;2023-05-10T07:01:42;11.80;99.90
21271;DHT22;10795;50.796;3.860;2023-05-10T07:04:08;11.90;99.90
21271;DHT22;10795;50.796;3.860;2023-05-10T07:06:34;11.90;99.90
21271;DHT22;10795;50.796;3.860;2023-05-10T07:09:00;11.90;99.90
21271;DHT22;10795;50.796;3.860;2023-05-10T07:11:26;11.80;99.90
21271;DHT22;10795;50.796;3.860;2023-05-10T07:13:52;11.80;99.90
21271;DHT22;10795;50.796;3.860;2023-05-10T07:16:18;11.80;99.90
21271;DHT22;10795;50.796;3.860;2023-05-10T07:18:44;11.80;99.90
21271;DHT22;10795;50.796;3.860;2023-05-10T07:21:10;11.90;99.90
21271;DHT22;10795;50.796;3.860;2023-05-10T07:23:36;11.90;99.90
21271;DHT22;10795;50.796;3.860;2023-05-10T07:26:01;11.90;99.90
21271;DHT22;10795;50.796;3.860;2023-05-10T07:28:27;12.00;99.90
21271;DHT22;10795;50.796;3.860;2023-05-10T07:30:53;11.90;99.90
21271;DHT22;10795;50.796;3.860;2023-05-10T07:33:19;12.00;99.90
21271;DHT22;10795;50.796;3.860;2023-05-10T07:35:45;11.90;99.90
21271;DHT22;10795;50.796;3.860;2023-05-10T07:38:11;12.00;99.90
21271;DHT22;10795;50.796;3.860;2023-05-10T07:40:38;11.90;99.90
21271;DHT22;10795;50.796;3.860;2023-05-10T07:43:04;11.90;99.90
21271;DHT22;10795;50.796;3.860;2023-05-10T07:45:30;11.90;99.90
21271;DHT22;10795;50.796;3.860;2023-05-10T07:47:56;11.90;99.90
21271;DHT22;10795;50.796;3.860;2023-05-10T07:50:22;11.90;99.90
21271;DHT22;10795;50.796;3.860;2023-05-10T07:52:47;11.90;99.90
21271;DHT22;10795;50.796;3.860;2023-05-10T07:55:13;11.90;99.90
21271;DHT22;10795;50.796;3.860;2023-05-10T07:57:42;12.00;99.90
21271;DHT22;10795;50.796;3.860;2023-05-10T08:00:08;12.00;99.90
21271;DHT22;10795;50.796;3.860;2023-05-10T08:02:40;12.10;99.90
21271;DHT22;10795;50.796;3.860;2023-05-10T08:05:06;12.10;99.90
21271;DHT22;10795;50.796;3.860;2023-05-10T08:07:32;12.00;99.90
21271;DHT22;10795;50.796;3.860;2023-05-10T08:09:59;11.90;99.90
21271;DHT22;10795;50.796;3.860;2023-05-10T08:12:25;11.90;99.90
21271;DHT22;10795;50.796;3.860;2023-05-10T08:14:51;12.00;99.90
21271;DHT22;10795;50.796;3.860;2023-05-10T08:17:17;12.00;99.90
21271;DHT22;10795;50.796;3.860;2023-05-10T08:19:42;12.00;99.90
21271;DHT22;10795;50.796;3.860;2023-05-10T08:22:08;12.00;99.90
21271;DHT22;10795;50.796;3.860;2023-05-10T08:24:34;12.00;99.90
21271;DHT22;10795;50.796;3.860;2023-05-10T08:27:05;12.00;99.90
21271;DHT22;10795;50.796;3.860;2023-05-10T08:29:31;12.00;99.90
21271;DHT22;10795;50.796;3.860;2023-05-10T08:31:57;12.10;99.90
21271;DHT22;10795;50.796;3.860;2023-05-10T08:34:22;12.10;99.90
21271;DHT22;10795;50.796;3.860;2023-05-10T08:36:49;12.00;99.90
21271;DHT22;10795;50.796;3.860;2023-05-10T08:39:15;12.00;99.90
21271;DHT22;10795;50.796;3.860;2023-05-10T08:41:44;12.00;99.90
21271;DHT22;10795;50.796;3.860;2023-05-10T08:44:10;12.00;99.90
21271;DHT22;10795;50.796;3.860;2023-05-10T08:46:37;12.00;99.90
21271;DHT22;10795;50.796;3.860;2023-05-10T08:49:07;12.00;99.90
21271;DHT22;10795;50.796;3.860;2023-05-10T08:51:40;11.90;99.90
21271;DHT22;10795;50.796;3.860;2023-05-10T08:54:09;11.90;99.90
21271;DHT22;10795;50.796;3.860;2023-05-10T08:56:36;11.90;99.90
21271;DHT22;10795;50.796;3.860;2023-05-10T08:59:02;11.90;99.90
21271;DHT22;10795;50.796;3.860;2023-05-10T09:01:28;11.90;99.90
21271;DHT22;10795;50.796;3.860;2023-05-10T09:03:56;12.00;99.90
21271;DHT22;10795;50.796;3.860;2023-05-10T09:06:22;12.10;99.90
21271;DHT22;10795;50.796;3.860;2023-05-10T09:08:48;12.20;99.90
21271;DHT22;10795;50.796;3.860;2023-05-10T09:11:15;12.20;99.90
21271;DHT22;10795;50.796;3.860;2023-05-10T09:13:42;12.20;99.90
21271;DHT22;10795;50.796;3.860;2023-05-10T09:16:09;12.30;99.90
21271;DHT22;10795;50.796;3.860;2023-05-10T09:18:35;12.30;99.90
21271;DHT22;10795;50.796;3.860;2023-05-10T09:21:01;12.30;99.90
21271;DHT22;10795;50.796;3.860;2023-05-10T09:23:27;12.30;99.90
21271;DHT22;10795;50.796;3.860;2023-05-10T09:26:07;12.30;99.90
21271;DHT22;10795;50.796;3.860;2023-05-10T09:28:54;12.40;99.90
21271;DHT22;10795;50.796;3.860;2023-05-10T09:31:21;12.40;99.90
21271;DHT22;10795;50.796;3.860;2023-05-10T09:33:48;12.40;99.90
21271;DHT22;10795;50.796;3.860;2023-05-10T09:36:14;12.40;99.90
21271;DHT22;10795;50.796;3.860;2023-05-10T09:38:51;12.40;99.90
21271;DHT22;10795;50.796;3.860;2023-05-10T09:41:18;12.50;99.90
21271;DHT22;10795;50.796;3.860;2023-05-10T09:43:45;12.40;99.90
21271;DHT22;10795;50.796;3.860;2023-05-10T09:46:11;12.60;99.90
21271;DHT22;10795;50.796;3.860;2023-05-10T09:48:46;12.80;99.90
21271;DHT22;10795;50.796;3.860;2023-05-10T09:51:22;12.90;99.90
21271;DHT22;10795;50.796;3.860;2023-05-10T09:53:48;13.00;99.90
21271;DHT22;10795;50.796;3.860;2023-05-10T09:56:35;13.10;99.90
21271;DHT22;10795;50.796;3.860;2023-05-10T09:59:06;13.10;99.90
21271;DHT22;10795;50.796;3.860;2023-05-10T10:01:33;13.10;99.90
21271;DHT22;10795;50.796;3.860;2023-05-10T10:04:06;13.10;99.90
21271;DHT22;10795;50.796;3.860;2023-05-10T10:06:39;13.10;99.90
21271;DHT22;10795;50.796;3.860;2023-05-10T10:09:08;13.20;99.90
21271;DHT22;10795;50.796;3.860;2023-05-10T10:11:36;13.20;99.90
21271;DHT22;10795;50.796;3.860;2023-05-10T10:14:02;13.10;99.90
21271;DHT22;10795;50.796;3.860;2023-05-10T10:16:31;13.30;99.90
21271;DHT22;10795;50.796;3.860;2023-05-10T10:18:58;13.30;99.90
21271;DHT22;10795;50.796;3.860;2023-05-10T10:21:24;13.40;99.90
21271;DHT22;10795;50.796;3.860;2023-05-10T10:23:51;13.50;99.90
21271;DHT22;10795;50.796;3.860;2023-05-10T10:26:17;13.40;99.90
21271;DHT22;10795;50.796;3.860;2023-05-10T10:29:00;13.50;99.90
21271;DHT22;10795;50.796;3.860;2023-05-10T10:34:26;13.50;99.90
21271;DHT22;10795;50.796;3.860;2023-05-10T10:36:55;13.50;99.90
21271;DHT22;10795;50.796;3.860;2023-05-10T10:39:23;13.70;99.90
21271;DHT22;10795;50.796;3.860;2023-05-10T10:41:55;13.60;99.90
21271;DHT22;10795;50.796;3.860;2023-05-10T10:44:28;13.80;99.90
21271;DHT22;10795;50.796;3.860;2023-05-10T10:49:52;14.00;99.90
21271;DHT22;10795;50.796;3.860;2023-05-10T10:52:31;14.00;99.90
21271;DHT22;10795;50.796;3.860;2023-05-10T10:57:50;13.80;99.90
21271;DHT22;10795;50.796;3.860;2023-05-10T11:03:12;13.90;99.90
21271;DHT22;10795;50.796;3.860;2023-05-10T11:05:50;14.20;99.90
21271;DHT22;10795;50.796;3.860;2023-05-10T11:08:29;14.40;99.90
21271;DHT22;10795;50.796;3.860;2023-05-10T11:11:04;14.20;99.90
21271;DHT22;10795;50.796;3.860;2023-05-10T11:13:39;14.40;99.90
21271;DHT22;10795;50.796;3.860;2023-05-10T11:16:24;14.20;99.90
21271;DHT22;10795;50.796;3.860;2023-05-10T11:21:19;14.50;99.90
21271;DHT22;10795;50.796;3.860;2023-05-10T11:23:52;14.60;99.90
21271;DHT22;10795;50.796;3.860;2023-05-10T11:26:19;14.50;99.90
21271;DHT22;10795;50.796;3.860;2023-05-10T11:28:49;14.60;99.90
21271;DHT22;10795;50.796;3.860;2023-05-10T11:31:19;14.40;99.90
21271;DHT22;10795;50.796;3.860;2023-05-10T11:33:46;14.50;99.90
21271;DHT22;10795;50.796;3.860;2023-05-10T11:36:21;14.70;99.90
21271;DHT22;10795;50.796;3.860;2023-05-10T11:38:48;14.70;99.90
21271;DHT22;10795;50.796;3.860;2023-05-10T11:41:16;14.50;99.90
21271;DHT22;10795;50.796;3.860;2023-05-10T11:43:42;14.40;99.90
21271;DHT22;10795;50.796;3.860;2023-05-10T11:46:10;14.50;99.90
21271;DHT22;10795;50.796;3.860;2023-05-10T11:48:39;14.80;99.90
21271;DHT22;10795;50.796;3.860;2023-05-10T11:51:06;15.00;99.90
21271;DHT22;10795;50.796;3.860;2023-05-10T11:53:33;15.00;99.90
21271;DHT22;10795;50.796;3.860;2023-05-10T11:56:11;15.10;99.90
21271;DHT22;10795;50.796;3.860;2023-05-10T11:58:38;15.20;99.90
21271;DHT22;10795;50.796;3.860;2023-05-10T12:01:05;15.00;99.90
21271;DHT22;10795;50.796;3.860;2023-05-10T12:03:32;14.80;99.90
21271;DHT22;10795;50.796;3.860;2023-05-10T12:05:59;14.90;99.90
21271;DHT22;10795;50.796;3.860;2023-05-10T12:08:28;14.60;99.90
21271;DHT22;10795;50.796;3.860;2023-05-10T12:11:04;14.90;99.90
21271;DHT22;10795;50.796;3.860;2023-05-10T12:13:30;15.10;99.90
21271;DHT22;10795;50.796;3.860;2023-05-10T12:15:59;15.30;99.90
21271;DHT22;10795;50.796;3.860;2023-05-10T12:18:26;15.00;99.90
21271;DHT22;10795;50.796;3.860;2023-05-10T12:20:52;14.80;99.90
21271;DHT22;10795;50.796;3.860;2023-05-10T12:23:20;14.70;99.90
21271;DHT22;10795;50.796;3.860;2023-05-10T12:25:46;14.90;99.90
21271;DHT22;10795;50.796;3.860;2023-05-10T12:28:12;15.50;99.90
21271;DHT22;10795;50.796;3.860;2023-05-10T12:30:38;15.50;99.90
21271;DHT22;10795;50.796;3.860;2023-05-10T12:33:09;15.60;99.90
21271;DHT22;10795;50.796;3.860;2023-05-10T12:35:49;15.60;99.90
21271;DHT22;10795;50.796;3.860;2023-05-10T12:43:31;14.90;99.90
21271;DHT22;10795;50.796;3.860;2023-05-10T12:45:57;15.50;99.90
21271;DHT22;10795;50.796;3.860;2023-05-10T12:48:23;15.40;99.90
21271;DHT22;10795;50.796;3.860;2023-05-10T12:50:49;15.60;99.90
21271;DHT22;10795;50.796;3.860;2023-05-10T12:53:16;15.70;99.90
21271;DHT22;10795;50.796;3.860;2023-05-10T12:55:42;15.80;99.90
21271;DHT22;10795;50.796;3.860;2023-05-10T12:58:08;15.70;99.90
21271;DHT22;10795;50.796;3.860;2023-05-10T13:00:34;15.80;99.90
21271;DHT22;10795;50.796;3.860;2023-05-10T13:03:00;15.70;99.90
21271;DHT22;10795;50.796;3.860;2023-05-10T13:05:26;15.60;99.90
21271;DHT22;10795;50.796;3.860;2023-05-10T13:07:52;15.80;99.90
21271;DHT22;10795;50.796;3.860;2023-05-10T13:10:17;15.70;99.90
21271;DHT22;10795;50.796;3.860;2023-05-10T13:12:43;15.50;99.90
21271;DHT22;10795;50.796;3.860;2023-05-10T13:15:09;15.50;99.90
21271;DHT22;10795;50.796;3.860;2023-05-10T13:17:35;15.40;99.90
21271;DHT22;10795;50.796;3.860;2023-05-10T13:20:01;15.60;99.90
21271;DHT22;10795;50.796;3.860;2023-05-10T13:22:27;15.50;99.90
21271;DHT22;10795;50.796;3.860;2023-05-10T13:24:52;16.00;99.90
21271;DHT22;10795;50.796;3.860;2023-05-10T13:27:18;15.80;99.90
21271;DHT22;10795;50.796;3.860;2023-05-10T13:29:44;15.90;99.90
21271;DHT22;10795;50.796;3.860;2023-05-10T13:32:10;15.80;99.90
21271;DHT22;10795;50.796;3.860;2023-05-10T13:34:35;15.90;99.90
21271;DHT22;10795;50.796;3.860;2023-05-10T13:37:02;16.00;99.90
21271;DHT22;10795;50.796;3.860;2023-05-10T13:39:27;15.90;99.90
21271;DHT22;10795;50.796;3.860;2023-05-10T13:41:56;15.60;99.90
21271;DHT22;10795;50.796;3.860;2023-05-10T13:44:22;15.60;99.90
21271;DHT22;10795;50.796;3.860;2023-05-10T13:46:48;15.70;99.90
21271;DHT22;10795;50.796;3.860;2023-05-10T13:49:13;15.50;99.90
21271;DHT22;10795;50.796;3.860;2023-05-10T13:51:39;15.60;99.90
21271;DHT22;10795;50.796;3.860;2023-05-10T13:54:05;15.60;99.90
21271;DHT22;10795;50.796;3.860;2023-05-10T13:56:31;15.30;99.90
21271;DHT22;10795;50.796;3.860;2023-05-10T13:58:57;15.20;99.90
21271;DHT22;10795;50.796;3.860;2023-05-10T14:01:24;14.90;99.90
21271;DHT22;10795;50.796;3.860;2023-05-10T14:03:50;15.20;99.90
21271;DHT22;10795;50.796;3.860;2023-05-10T14:06:15;15.50;99.90
21271;DHT22;10795;50.796;3.860;2023-05-10T14:08:41;15.30;99.90
21271;DHT22;10795;50.796;3.860;2023-05-10T14:11:07;15.30;99.90
21271;DHT22;10795;50.796;3.860;2023-05-10T14:13:33;15.70;99.90
21271;DHT22;10795;50.796;3.860;2023-05-10T14:15:59;16.20;99.90
21271;DHT22;10795;50.796;3.860;2023-05-10T14:18:26;16.40;99.90
21271;DHT22;10795;50.796;3.860;2023-05-10T14:20:52;16.50;99.90
21271;DHT22;10795;50.796;3.860;2023-05-10T14:23:18;16.60;99.90
21271;DHT22;10795;50.796;3.860;2023-05-10T14:25:50;16.80;99.90
21271;DHT22;10795;50.796;3.860;2023-05-10T14:28:17;16.70;99.90
21271;DHT22;10795;50.796;3.860;2023-05-10T14:30:44;15.80;99.90
21271;DHT22;10795;50.796;3.860;2023-05-10T14:33:10;15.80;99.90
21271;DHT22;10795;50.796;3.860;2023-05-10T14:35:36;15.50;99.90
21271;DHT22;10795;50.796;3.860;2023-05-10T14:38:02;15.10;99.90
21271;DHT22;10795;50.796;3.860;2023-05-10T14:40:29;14.80;99.90
21271;DHT22;10795;50.796;3.860;2023-05-10T14:42:55;14.70;99.90
21271;DHT22;10795;50.796;3.860;2023-05-10T14:45:22;14.60;99.90
21271;DHT22;10795;50.796;3.860;2023-05-10T14:47:48;14.70;99.90
21271;DHT22;10795;50.796;3.860;2023-05-10T14:50:15;14.70;99.90
21271;DHT22;10795;50.796;3.860;2023-05-10T14:52:42;14.80;99.90
21271;DHT22;10795;50.796;3.860;2023-05-10T14:55:08;15.10;99.90
21271;DHT22;10795;50.796;3.860;2023-05-10T14:57:34;15.00;99.90
21271;DHT22;10795;50.796;3.860;2023-05-10T15:00:00;14.90;99.90
21271;DHT22;10795;50.796;3.860;2023-05-10T15:02:26;14.80;99.90
21271;DHT22;10795;50.796;3.860;2023-05-10T15:04:51;15.30;99.90
21271;DHT22;10795;50.796;3.860;2023-05-10T15:07:17;15.50;99.90
21271;DHT22;10795;50.796;3.860;2023-05-10T15:09:44;15.10;99.90
21271;DHT22;10795;50.796;3.860;2023-05-10T15:12:10;14.70;99.90
21271;DHT22;10795;50.796;3.860;2023-05-10T15:14:36;15.00;99.90
21271;DHT22;10795;50.796;3.860;2023-05-10T15:17:02;14.90;99.90
21271;DHT22;10795;50.796;3.860;2023-05-10T15:19:28;14.90;99.90
21271;DHT22;10795;50.796;3.860;2023-05-10T15:21:58;15.10;99.90
21271;DHT22;10795;50.796;3.860;2023-05-10T15:24:24;15.20;99.90
21271;DHT22;10795;50.796;3.860;2023-05-10T15:26:50;15.20;99.90
21271;DHT22;10795;50.796;3.860;2023-05-10T15:29:16;15.20;99.90
21271;DHT22;10795;50.796;3.860;2023-05-10T15:31:46;14.90;99.90
21271;DHT22;10795;50.796;3.860;2023-05-10T15:34:13;15.00;99.90
21271;DHT22;10795;50.796;3.860;2023-05-10T15:36:39;15.10;99.90
21271;DHT22;10795;50.796;3.860;2023-05-10T15:39:04;15.60;99.90
21271;DHT22;10795;50.796;3.860;2023-05-10T15:41:31;15.40;99.90
21271;DHT22;10795;50.796;3.860;2023-05-10T15:43:57;15.30;99.90
21271;DHT22;10795;50.796;3.860;2023-05-10T15:46:25;15.60;99.90
21271;DHT22;10795;50.796;3.860;2023-05-10T15:48:51;15.60;99.90
21271;DHT22;10795;50.796;3.860;2023-05-10T15:51:17;16.00;99.90
21271;DHT22;10795;50.796;3.860;2023-05-10T15:53:44;16.20;99.90
21271;DHT22;10795;50.796;3.860;2023-05-10T15:56:10;16.30;99.90
21271;DHT22;10795;50.796;3.860;2023-05-10T15:58:40;16.10;99.90
21271;DHT22;10795;50.796;3.860;2023-05-10T16:01:06;16.00;99.90
21271;DHT22;10795;50.796;3.860;2023-05-10T16:03:32;16.20;99.90